o


Advertise Here

 


Click for Past Results:

2006
2005


 
RBC Race For The Kids 5k & 15k | 08 October 2017
5k Overall | 1419 Participants
Printer-Friendly Results  

SURNAME


FIRST NAME

Bib #




pos Time Bib# athlete's Name Age sex pl/tot Division Pace/Km Staff Team
1 17:08 26 COLIN BRUMANT 34 M 1 / 124 M3039 3:26
2 17:28 1957 JEDIAEL WALTERS 18 M 1 / 165 M-U20 3:30
3 18:05 1742 YALIN PAN 31 M 2 / 124 M3039 3:37
4 18:05 968 JAMAL JOSEPH 21 M 1 / 86 M2029 3:37 TEAM MUCURAPO EAST
5 18:19 1992 TROY LLANOS 14 M 2 / 165 M-U20 3:40
6 18:25 1488 ROMMEL BAHADUR 23 M 2 / 86 M2029 3:41 X
7 18:29 2066 SIMON FRANCOIS 36 M 3 / 124 M3039 3:42
8 18:39 1100 KAREEM MASON 16 M 3 / 165 M-U20 3:44 TEAM CIC
9 18:58 1541 SEAN HINDS 36 M 4 / 124 M3039 3:48 EC PHILLYNET
10 19:01 1173 KINGSLEY BENJAMIN 37 M 5 / 124 M3039 3:49
11 19:23 1748 YUSUF MUSTAFA 15 M 4 / 165 M-U20 3:53
12 19:38 1196 KYLE PAUL 16 M 5 / 165 M-U20 3:56
13 19:46 749 CURTIS BRERETON 56 M 1 / 48 M5059 3:58
14 19:50 2411 SHELDON MASON 33 M 6 / 124 M3039 3:58 MANGOTREEFITNESS
15 20:02 1295 MATTHEW GRAHAM 18 M 6 / 165 M-U20 4:01 TEAM MUCURAPO EAST
16 20:08 1955 DARIEL DES VIGNES 18 M 7 / 165 M-U20 4:02
17 20:25 2391 MIKHAIL WILLIAMS 27 M 3 / 86 M2029 4:05
18 20:28 808 DEXSTAR SERRETTE 51 M 2 / 48 M5059 4:06
19 20:47 1512 RYAN JOSEPH JR. 12 M 8 / 165 M-U20 4:10 TEAM MUCURAPO EAST
20 20:53 819 DON ROBERTS 16 M 9 / 165 M-U20 4:11 TEAM MUCURAPO EAST
21 20:54 1696 TREY WILLIAMS 18 M 10 / 165 M-U20 4:11 TEAM MUCURAPO EAST
22 21:10 1471 RIA FORTE 33 M 7 / 124 M3039 4:14 X TEAM PMC
23 21:20 2187 APRIL FRANCIS 27 F 1 / 190 F2029 4:16
24 21:26 1649 SURESH CASSIE 37 M 8 / 124 M3039 4:18 PRICEWATERHOUSECOOPERS
25 21:27 1753 ZANOAH WILSON 14 M 11 / 165 M-U20 4:18
26 21:29 1215 LEMUEL BROWNE 14 M 12 / 165 M-U20 4:18 TEAM MUCURAPO EAST
27 21:47 979 JANEIL BAILEY 13 F 1 / 165 F-U20 4:22
28 21:55 297 KERON GOPICHANSINGH 26 M 4 / 86 M2029 4:23 TEAM COCA-COLA
29 22:07 1316 MIYKAYL GAFFOOR 13 M 13 / 165 M-U20 4:26
30 22:09 496 ADRIAN HACKETT 21 M 5 / 86 M2029 4:26 TEAM NAGICO
31 22:15 554 ANDERSON ALDER 52 M 3 / 48 M5059 4:27
32 22:22 1634 STEFAN DASS 15 M 14 / 165 M-U20 4:29 TEAM PMC
33 22:31 2194 NIGEL BELLAMY 40 M 1 / 90 M4049 4:31 +OAW
34 22:33 946 ISAIAH ALDER 9 M 15 / 165 M-U20 4:31
35 22:35 2164 KORE RAMDHANIE 24 M 6 / 86 M2029 4:31
36 22:35 750 CURTIS GOSEIN 41 M 2 / 90 M4049 4:31
37 22:37 248 IAN JUMAN 48 M 3 / 90 M4049 4:32
38 22:43 1688 TISHA HENRY CHOW 30 F 1 / 267 F3039 4:33
39 22:47 2000 OCTAVIA CAMBRIDGE 13 F 2 / 165 F-U20 4:34
40 22:47 241 GERSHOM BYNG 29 M 7 / 86 M2029 4:34 GOLDEN EAGLES
41 22:47 1241 LUC RAMIREZ 17 M 16 / 165 M-U20 4:34 TEAM MAPLE LEAF
42 22:48 50 JONATHANC MC EACHRANE 16 M 17 / 165 M-U20 4:34 RBC COUVA
43 22:48 771 DARRYAN CORNWALL 22 M 8 / 86 M2029 4:34
44 22:57 1739 WYNETTE HAREWOOD 62 F 1 / 25 F60+ 4:36 LOK JACK GSB RUNNERS
45 23:00 967 JAMAALL JACKMAN 28 M 9 / 86 M2029 4:36
46 23:01 1737 WILLIAM REYES 16 M 18 / 165 M-U20 4:37 TEAM CIC
47 23:05 1706 TROY-CABRAL GALE 14 M 19 / 165 M-U20 4:37 TEAM HILLVIEW COLLEGE ROA
48 23:06 2183 JAHEIYM MELVILLE 8 M 20 / 165 M-U20 4:38
49 23:26 245 GYASI AMBROSE 29 M 10 / 86 M2029 4:42
50 23:26 1300 MELISSA GUEVARA 37 F 2 / 267 F3039 4:42
51 23:33 1958 KAREN CHANG 44 F 1 / 157 F4049 4:43
52 23:37 1035 JHENISE GARCIA 9 F 3 / 165 F-U20 4:44 TEAM MUCURAPO EAST
53 23:38 2086 JUDAN SELMAN 13 M 21 / 165 M-U20 4:44 FR.PATHFINDER CLUB
54 23:41 817 DOMINIC TIMOTHY 17 M 22 / 165 M-U20 4:45 TEAM HILLVIEW COLLEGE ROA
55 23:42 2213 MAHKAYA MAHON 10 F 4 / 165 F-U20 4:45
56 23:43 1056 JONATHAN BALKARAN 17 M 23 / 165 M-U20 4:45 TEAM HILLVIEW COLLEGE ROA
57 23:45 1527 SAMUEL BLACHE 11 M 24 / 165 M-U20 4:45 TEAM HILLVIEW COLLEGE ROA
58 23:47 1811 DARION MURRAY 8 M 25 / 165 M-U20 4:46
59 23:49 943 IRWIN WILLIAMS 35 M 9 / 124 M3039 4:46 EC PHILLYNET
60 23:57 46 JAMIYL MCDOUGALL 30 M 10 / 124 M3039 4:48 EC PHILLYNET
61 24:01 1919 SELVON JAILAL 50 M 4 / 48 M5059 4:49 SABRES MULTI SPORT CLUB
62 24:08 380 OMARI GRAHAM 31 M 11 / 124 M3039 4:50 UWISEISMIC
63 24:09 2301 HEZRON VEERASAMMY 38 M 12 / 124 M3039 4:50
64 24:20 1673 TARUN PINTO PEREIRA 37 M 13 / 124 M3039 4:52
65 24:21 1069 JOSHUA HALL 14 M 26 / 165 M-U20 4:53
66 24:21 379 OENELLA DORMAN 27 F 2 / 190 F2029 4:53 SHARP SHOOTERS
67 24:21 373 NIKISHA JOHN 40 F 2 / 157 F4049 4:53 SHARP SHOOTERS
68 24:21 1982 SHERRY-ANN COOLMAN 39 F 3 / 267 F3039 4:53
69 24:21 392 PRINCE FRANCIS 21 M 11 / 86 M2029 4:53 SHARP SHOOTERS
70 24:22 304 KEVIN LEWIS 30 M 14 / 124 M3039 4:53 SHARP SHOOTERS
71 24:25 2084 NAKOSI JOHN 14 M 27 / 165 M-U20 4:53 FR.PATHFINDER CLUB
72 24:28 991 RICK GUERRA 26 M 12 / 86 M2029 4:54 TEAM HR
73 24:28 1028 JEREMY DAVIS 17 M 28 / 165 M-U20 4:54 TEAM MUCURAPO EAST
74 24:32 2315 SIMONE SADLER 47 F 3 / 157 F4049 4:55 XO MULTI-SPORT CLUB
75 24:32 1834 JANICE GOODING 21 F 3 / 190 F2029 4:55
76 24:33 1858 KIRK RAGOONANAN 33 M 15 / 124 M3039 4:55 OLYMPUS ATHLETIC CLUB
77 24:36 2087 KYLAN PHILLIP 14 F 5 / 165 F-U20 4:56 FR.PATHFINDER CLUB
78 24:41 955 JACOB HARRIPAUL 11 M 29 / 165 M-U20 4:57
79 24:43 87 RALPH BEST 46 M 4 / 90 M4049 4:57
80 24:47 73 MYLES MC EACHRANE 17 M 30 / 165 M-U20 4:58 RBC COUVA
81 24:47 993 JASON PASCALL 37 M 16 / 124 M3039 4:58
82 24:47 1755 ZARIAH PASCALL 7 F 6 / 165 F-U20 4:58
83 24:48 571 ANICA GHENT 33 F 4 / 267 F3039 4:58
84 24:53 1347 NEIL BISSOON 44 M 5 / 90 M4049 4:59 FUGRO
85 24:53 39 EDWARD CAPSAN 41 M 6 / 90 M4049 4:59
86 24:55 15 ARNOLD HOSEIN 52 M 5 / 48 M5059 4:59
87 25:05 2157 ALLISON DICKMAN 30 F 5 / 267 F3039 5:01
88 25:09 261 JAVAN DE SOUZA 40 M 7 / 90 M4049 5:02 TEAM ARIMA
89 25:09 93 RENEE STODDARD 19 F 7 / 165 F-U20 5:02
90 25:10 1221 LIAM WESTFIELD 15 M 31 / 165 M-U20 5:02 TEAM PMC
91 25:11 1627 STACY CHAI 37 F 6 / 267 F3039 5:03
92 25:12 2146 GILBERT NEPTUNE 35 M 17 / 124 M3039 5:03
93 25:19 961 JAE-HWA LEE WING 15 M 32 / 165 M-U20 5:04 TEAM HILLVIEW COLLEGE ROA
94 25:20 1476 RICARDO HACKETT 42 M 8 / 90 M4049 5:04
95 25:27 2057 JANICE SNAGGS 45 F 4 / 157 F4049 5:06
96 25:27 2075 ARI VICTOR 7 M 33 / 165 M-U20 5:06
97 25:32 5 ANDREW RAMLAKHAN 17 M 34 / 165 M-U20 5:07
98 25:49 14 ARLENE FRANCIS 44 F 5 / 157 F4049 5:10
99 25:50 2287 GREGORY GARCIA 34 M 18 / 124 M3039 5:10
100 25:50 71 MATTHEW CAPSAN 14 M 35 / 165 M-U20 5:10
101 25:54 2370 LAURA NARAYNSINGH 26 F 4 / 190 F2029 5:11
102 25:56 35 DR. GLENN RAMADARSINGH 45 M 9 / 90 M4049 5:12
103 26:05 77 NIRVAN VISHNU 43 M 10 / 90 M4049 5:13
104 26:07 2199 GABRIELLA SAMUEL 28 F 5 / 190 F2029 5:14 UBERLIFE
105 26:10 1566 SHARON CHAI 35 F 7 / 267 F3039 5:14
106 26:12 1151 KESTER BRERETON 44 M 11 / 90 M4049 5:15 X KICKIN' ASPHALT
107 26:15 1067 JOSHUA DASS 14 M 36 / 165 M-U20 5:15 TEAM PMC
108 26:19 389 PETER KELLY 55 M 6 / 48 M5059 5:16
109 26:26 8 ANIL GHURAN 47 M 12 / 90 M4049 5:18
110 26:37 903 GILLIAN CUPIDORE 48 F 6 / 157 F4049 5:20 TTRRC
111 26:38 2204 NOEL WILLIAMS 14 M 37 / 165 M-U20 5:20
112 26:39 2152 NICKOLA JOHNSON 29 F 6 / 190 F2029 5:20
113 26:39 1121 KAVEER PHILLIP 17 M 38 / 165 M-U20 5:20 TEAM HILLVIEW COLLEGE ROA
114 26:40 47 JEFFERSON VANSERTIMA 36 M 19 / 124 M3039 5:20
115 26:45 2237 YUSSIF ALI-ANTARU 33 M 20 / 124 M3039 5:21 FIVE STAR FITNESS FACTORY
116 26:46 2330 KHALFANI JEFFREY 32 M 21 / 124 M3039 5:21
117 26:54 1539 SCOTT PINHEIRO 16 M 39 / 165 M-U20 5:23 TEAM MAPLE LEAF
118 26:57 2308 KAILEY CHOOKOLINGO 41 M 13 / 90 M4049 5:24
119 27:00 1962 SIMON SUTCLIFFE 47 M 14 / 90 M4049 5:24 INTERNATIONAL TEAM
120 27:03 1545 SEBASTIEN BYNG 12 M 40 / 165 M-U20 5:25 TEAM HILLVIEW COLLEGE ROA
121 27:03 1257 MARC DE LEON 43 M 15 / 90 M4049 5:25
122 27:08 2264 DAVID COCKBURN 41 M 16 / 90 M4049 5:26
123 27:10 1186 KRISTY JOSEPH 25 F 7 / 190 F2029 5:26 FUGRO
124 27:15 1526 SAMUEL WALKE 31 M 22 / 124 M3039 5:27 SURGE KATALYST
125 27:19 1981 KIRTH MUIR 34 M 23 / 124 M3039 5:28
126 27:21 723 CHRYSTEL BROWNE 34 F 8 / 267 F3039 5:28 X
127 27:21 1733 WENDY KERRY 43 F 7 / 157 F4049 5:29
128 27:22 2212 NIKOSI FONCETTE 9 M 41 / 165 M-U20 5:29
129 27:22 1912 ROXANNE EDWARDS 35 F 9 / 267 F3039 5:29 TEAM HIGH STREET
130 27:23 1469 RHIANNA JACKSON 11 F 8 / 165 F-U20 5:29 TEAM MUCURAPO EAST
131 27:23 1986 CHRISTIAN BARRAN 23 M 13 / 86 M2029 5:29 CHRIS VS NICK
132 27:26 2018 LEVI SMITH 11 M 42 / 165 M-U20 5:30
133 27:29 807 DEVON WORRELL 40 M 17 / 90 M4049 5:30 FITNESS 360
134 27:31 2083 NIKOLI JOHN 10 M 43 / 165 M-U20 5:31 FR.PATHFINDER CLUB
135 27:32 2254 EMILY OLIVIERI 22 F 8 / 190 F2029 5:31 CORBIN COMMUNICATIONS
136 27:35 2080 AGYEI DES VIGNES 12 M 44 / 165 M-U20 5:31 FR.PATHFINDER CLUB
137 27:36 2082 JAMES THOMAS 11 M 45 / 165 M-U20 5:32 FR.PATHFINDER CLUB
138 27:39 118 TIMOTHY RAMLAKHAN 46 M 18 / 90 M4049 5:32
139 27:46 409 RIDGELEE FRANCIS 24 M 14 / 86 M2029 5:34 SHARP SHOOTERS
140 27:47 1290 MARVIN CARMINO 37 M 24 / 124 M3039 5:34
141 27:54 1941 TRYESE BRUCE 15 M 46 / 165 M-U20 5:35 TEAM PRINCES TOWN
142 27:55 1083 JULIEN WESTFIELD 49 M 19 / 90 M4049 5:35 TEAM PMC
143 27:59 1063 JOSH FULLER 12 M 47 / 165 M-U20 5:36 TEAM MAPLE LEAF
144 28:00 1442 RAVI GHURAN 41 M 20 / 90 M4049 5:36 X TEAM PMC
145 28:01 1089 JUSTIN VALERE 18 M 48 / 165 M-U20 5:37 TEAM HILLVIEW COLLEGE ROA
146 28:02 2329 DILLON JIMINEZ 42 M 21 / 90 M4049 5:37
147 28:04 222 DJORN CORNWALL 21 M 15 / 86 M2029 5:37 GOLDEN EAGLES
148 28:04 2042 ALANA DUPREY-MELVILLE 37 F 10 / 267 F3039 5:37
149 28:04 2091 AARON ALEXANDER 20 M 16 / 86 M2029 5:37 FR.PATHFINDER CLUB
150 28:07 1331 NARINE RAMPAUL 53 M 7 / 48 M5059 5:38
151 28:10 793 DEBRA BOUCAUD-MASON 55 F 1 / 77 F5059 5:38
152 28:11 1156 KEVIN RAMADHAR 32 M 25 / 124 M3039 5:39 PRICEWATERHOUSECOOPERS
153 28:12 1009 JEAN LUC JAMES SMITH 13 M 49 / 165 M-U20 5:39 TEAM MAPLE LEAF
154 28:12 216 DERLYAN CORNWALL 24 M 17 / 86 M2029 5:39 GOLDEN EAGLES
155 28:13 1120 KATIE DARLOW 13 F 9 / 165 F-U20 5:39 TEAM MAPLE LEAF
156 28:16 2386 DOMINIC DAVIS 26 M 18 / 86 M2029 5:40
157 28:16 166 ASHA SINGH1981 36 F 11 / 267 F3039 5:40
158 28:17 259 JASON JORDAN 26 M 19 / 86 M2029 5:40 TEAM COCA-COLA
159 28:18 2046 ANTHONY WHARWOOD 41 M 22 / 90 M4049 5:40
160 28:19 1740 XIAOBAO LIU 34 M 26 / 124 M3039 5:40
161 28:20 1749 YVONNE ARTHUR 59 F 2 / 77 F5059 5:40
162 28:20 2352 LARRY CLARENCE 34 M 27 / 124 M3039 5:40
163 28:21 371 NICHOLAS RAMRATTAN 25 M 20 / 86 M2029 5:41
164 28:22 2303 JAVID BISHOP 26 M 21 / 86 M2029 5:41
165 28:22 191 CHERYL HAMILTON 40 F 8 / 157 F4049 5:41
166 28:22 1687 TIMOTHY PATIHK 39 M 28 / 124 M3039 5:41
167 28:25 619 AVALON DEJEAN JOHN 17 M 50 / 165 M-U20 5:41
168 28:25 1888 NEIL JUMAN 44 M 23 / 90 M4049 5:41
169 28:26 306 KEVION JORDAN 29 M 22 / 86 M2029 5:42
170 28:30 562 ANDREW BOISSIERE 42 M 24 / 90 M4049 5:42
171 28:31 434 SHAILENDRA BEHARRY 36 M 29 / 124 M3039 5:43
172 28:33 1478 RICHARD LE BLANC 47 M 25 / 90 M4049 5:43
173 28:33 323 LELORD SANMOOGAN 53 M 8 / 48 M5059 5:43
174 28:34 510 ALAN HACKETT 47 M 26 / 90 M4049 5:43 TEAM NAGICO
175 28:34 235 EVANS JOHN 56 M 9 / 48 M5059 5:43
176 28:36 1500 ROSHAWN JACKSON 9 F 10 / 165 F-U20 5:44 TEAM MUCURAPO EAST
177 28:39 1135 KELLEE SPICER 24 F 9 / 190 F2029 5:44 EMPEROR AVE POSSE
178 28:41 2399 KHEVAN JOSEPH 29 M 23 / 86 M2029 5:45
179 28:42 1410 PAUL PEREIRA 36 M 30 / 124 M3039 5:45
180 28:50 1205 LAURA BRENNAN 25 F 10 / 190 F2029 5:46
181 28:51 1213 LEE ANNA HAYNES 37 F 12 / 267 F3039 5:47 X RUN LIKE THE WINDED
182 28:53 1507 RUDRANUTH JOSEPH 54 M 10 / 48 M5059 5:47 X KICKIN' ASPHALT
183 28:58 1917 SARAH JAMES 24 F 11 / 190 F2029 5:48
184 28:58 1793 CARLVIN FRANCOIS 26 M 24 / 86 M2029 5:48
185 28:58 2186 LUANNE SPRINGER 44 F 9 / 157 F4049 5:48
186 29:01 687 CHARLES BELL 12 M 51 / 165 M-U20 5:49 TEAM MAPLE LEAF
187 29:02 276 JOHNNY JOSEPH FLETCHER 58 M 11 / 48 M5059 5:49
188 29:04 995 MARSHA HUNTE 34 F 13 / 267 F3039 5:49 X TEAM PMC
189 29:05 1774 ANAND DEOPERSAD 41 M 27 / 90 M4049 5:49
190 29:07 1263 MARIE-ANNE RAMSAHAI 17 F 11 / 165 F-U20 5:50
191 29:08 1385 OBADYAH INCE 17 M 52 / 165 M-U20 5:50 TEAM PMC
192 29:08 1743 YEHEZKE'L INCE 14 M 53 / 165 M-U20 5:50 TEAM PMC
193 29:09 1195 KYLE PHILLIP 12 M 54 / 165 M-U20 5:50
194 29:09 921 HAYDEN BISHOP 30 M 31 / 124 M3039 5:50
195 29:14 483 AARON MARCUS 35 M 32 / 124 M3039 5:51 FUGRO
196 29:15 2039 BERNARD MCCLEAN 41 M 28 / 90 M4049 5:51
197 29:16 1175 KIRK RODRIGUEZ 35 M 33 / 124 M3039 5:52 X
198 29:21 872 FLOYD SAMUEL 57 M 12 / 48 M5059 5:53
199 29:21 804 DESMOND WILLIAMS 62 M 1 / 18 M60+ 5:53
200 29:22 782 DAVID SOLIS 24 M 25 / 86 M2029 5:53
201 29:26 973 JAMES KAUFFMAN 12 M 55 / 165 M-U20 5:54 TEAM MAPLE LEAF
202 29:28 1307 MICHAEL MATURINE 15 M 56 / 165 M-U20 5:54 TEAM DIEGO MARTIN NORTH S
203 29:28 29 DAVE LUTCHMAN 47 M 29 / 90 M4049 5:54
204 29:29 2263 NIGEL BAIRD 44 M 30 / 90 M4049 5:54 X
205 29:35 355 MOHAN CHOTOO 59 M 13 / 48 M5059 5:55 TEAM COCA-COLA
206 29:37 1242 LUCRECIA BIRCH 42 F 10 / 157 F4049 5:56
207 29:37 351 MICHAEL CHATOOR 52 M 14 / 48 M5059 5:56 TEAM COCA-COLA
208 29:38 952 JABARI FERVEQUE 15 M 57 / 165 M-U20 5:56 TEAM MUCURAPO EAST
209 29:39 2406 NICHOLAS SINGH 23 M 26 / 86 M2029 5:56 CHRIS VS NICK
210 29:41 511 ALAN VIEIRA 52 M 15 / 48 M5059 5:57
211 29:41 1183 KRISTI-ANNE MC AULEY 37 F 14 / 267 F3039 5:57 PRICEWATERHOUSECOOPERS
212 29:42 705 CHERYL CHONG-JARDINE 54 F 3 / 77 F5059 5:57 FUGRO
213 29:42 217 DERRICK KATWAROO 45 M 31 / 90 M4049 5:57 X #TEAMGUSTINE
214 29:43 2162 DAYNE LEWIS 33 M 34 / 124 M3039 5:57
215 29:47 156 ANTHONY ENRIQUE-PAUL 26 M 27 / 86 M2029 5:58 TEAM COCA-COLA
216 29:50 1923 SHAUN CRAWFORD 37 M 35 / 124 M3039 5:58 X
217 29:52 679 CHAE-MARIE CRAWFORD 7 F 12 / 165 F-U20 5:59 TEAM HIGH STREET
218 29:55 221 DION CODRINGTON 31 M 36 / 124 M3039 5:59 EC PHILLYNET
219 29:59 1776 ANDY JUMAN 40 M 32 / 90 M4049 6:00
220 30:01 402 RENNIE PEREIRA 46 M 33 / 90 M4049 6:01 TEAM COCA-COLA
221 30:01 898 GERARD BART 45 M 34 / 90 M4049 6:01 TEAM NAGICO
222 30:01 1007 JAYLON SARJEANT 13 M 58 / 165 M-U20 6:01 BOBO TOE POSSE
223 30:01 1126 KAYLON HACKETT 15 F 13 / 165 F-U20 6:01 TEAM NAGICO
224 30:03 1053 JONATHAN ABRAHAM 13 M 59 / 165 M-U20 6:01 TEAM HILLVIEW COLLEGE ROA
225 30:08 1076 JUDAH HALL 10 F 14 / 165 F-U20 6:02
226 30:09 2203 LEMUEL WILLIAMS 17 M 60 / 165 M-U20 6:02
227 30:16 2033 CLINT LEGALL 32 M 37 / 124 M3039 6:04 X
228 30:18 1170 KIAH MOHAMMED 29 F 12 / 190 F2029 6:04
229 30:25 1503 ROSSI DASS 35 M 38 / 124 M3039 6:05
230 30:26 2387 MARSHA DOUCHETTE 30 F 15 / 267 F3039 6:06
231 30:29 1265 MARIE-FRANCE BERNECHE 41 F 11 / 157 F4049 6:06 TEAM MAPLE LEAF
232 30:31 2383 DAVERAJ RAMROOP 20 M 28 / 86 M2029 6:07
233 30:35 1694 TRAY MARCELLE 17 M 61 / 165 M-U20 6:07 TEAM MUCURAPO EAST
234 30:36 1164 KHADIJAH BAPTISTE 15 F 15 / 165 F-U20 6:08 TEAM MUCURAPO EAST
235 30:39 271 JO-ANN KHALAWAN 46 F 12 / 157 F4049 6:08
236 30:39 818 DOMINIQUE RODRIGUES 34 F 16 / 267 F3039 6:08
237 30:42 1412 PAULINE CODRINGTON 31 F 17 / 267 F3039 6:09 X
238 30:44 207 DANIEL DWARIKA 28 M 29 / 86 M2029 6:09 TEAM COCA-COLA
239 30:46 2198 JOVUEL JOYLES 30 M 39 / 124 M3039 6:10 UBERLIFE
240 30:46 1112 KARYN STEWART 27 F 13 / 190 F2029 6:10
241 30:48 1184 KRISTIE LALLA 27 F 14 / 190 F2029 6:10
242 30:48 1449 REBECCA POLLONAIS 14 F 16 / 165 F-U20 6:10 TEAM MAPLE LEAF
243 30:49 1915 SAMYR MOHAMMED 5 F 17 / 165 F-U20 6:10 TEAM HIGH STREET
244 30:49 1759 AAMYR MOHAMMED 3 F 18 / 165 F-U20 6:10 TEAM HIGH STREET
245 30:49 626 BETH GALY 16 F 19 / 165 F-U20 6:10 TEAM MAPLE LEAF
246 30:52 844 EMIL MOHAMMED 30 M 40 / 124 M3039 6:11 TEAM HIGH STREET
247 30:52 1837 JASON JODHAN 29 M 30 / 86 M2029 6:11 PRIVATE BANKING & FIN
248 30:55 1875 MARIE THACKORIE 29 F 15 / 190 F2029 6:11
249 30:55 2380 AKITA MOHAMMED 46 F 13 / 157 F4049 6:11
250 30:55 440 SHARON HARRINGTON 54 F 4 / 77 F5059 6:11 FUN RUNNERS 
251 30:58 2085 NAKOSI JOHN 14 M 62 / 165 M-U20 6:12 FR.PATHFINDER CLUB
252 30:59 1325 NADIA BYNG 19 F 20 / 165 F-U20 6:12
253 31:01 1833 JAMIESON RAMKISSOON 31 M 41 / 124 M3039 6:13
254 31:02 2034 MACWEEN DOOKIE 37 M 42 / 124 M3039 6:13 BERMUDEZ WHEAT CRISPS TE
255 31:02 2023 DAVID C HOYTE 77 M 2 / 18 M60+ 6:13
256 31:05 2045 DEREK DANIEL 50 M 16 / 48 M5059 6:13 XO MULTI-SPORT CLUB
257 31:06 140 ALTHEA PUCKERIN 65 F 2 / 25 F60+ 6:13
258 31:07 1024 JENNICE PRIMA 13 F 21 / 165 F-U20 6:14 TEAM MUCURAPO EAST
259 31:07 158 AREILLE THOM 13 F 22 / 165 F-U20 6:14 FAVOURED BY GOD
260 31:09 232 ELVIS SMITH 35 M 43 / 124 M3039 6:14
261 31:10 1395 ORVILLE MELVILLE 54 M 17 / 48 M5059 6:14
262 31:10 354 MIKHAIL PASSEE 27 M 31 / 86 M2029 6:14
263 31:15 370 NICHOLAS RAMDEEN 44 M 35 / 90 M4049 6:15
264 31:16 403 RIA CHRISTIAN-THOMAS 31 F 18 / 267 F3039 6:16 TEAM TRINCITY
265 31:16 1849 KAVELLE MOHAMMED 34 F 19 / 267 F3039 6:16 MASTER OSH
266 31:18 387 PELHAM THOMAS 40 M 36 / 90 M4049 6:16
267 31:19 1704 TRISTON MARCELLE 17 M 63 / 165 M-U20 6:16 TEAM MUCURAPO EAST
268 31:20 630 BOBBI XAVIER 46 F 14 / 157 F4049 6:16
269 31:22 163 ARION ST. LOUIS 29 F 16 / 190 F2029 6:17 TEAM TRINCITY
270 31:23 2073 LEON SARGEANT 13 M 64 / 165 M-U20 6:17 FR.PATHFINDER CLUB
271 31:23 1862 KRISHON MC PHERSON 9 M 65 / 165 M-U20 6:17
272 31:24 2246 EBO JONES 35 M 44 / 124 M3039 6:17
273 31:25 1942 TYSHAD ASHTON 18 M 66 / 165 M-U20 6:17 PRIVATE BANKING & FIN
274 31:38 1436 RANDY BROWN 55 M 18 / 48 M5059 6:20 X KICKIN' ASPHALT
275 31:38 161 ARIEL SATTAUR 28 M 32 / 86 M2029 6:20
276 31:39 824 DONNA RAMPERSAD 32 F 20 / 267 F3039 6:20
277 31:41 737 CLYDE MORALDO 54 M 19 / 48 M5059 6:21 X KICKIN' ASPHALT
278 31:41 1947 VEJAI MATHURA 38 M 45 / 124 M3039 6:21 METRONOMES SPORTS AND CUL
279 31:42 1950 ZANEESHA MOHAMMED-SAMARO 37 F 21 / 267 F3039 6:21 METRONOMES SPORTS AND CUL
280 31:43 776 DAVID ALI 28 M 33 / 86 M2029 6:21 X KICKIN' ASPHALT
281 31:43 1509 RYAN ALI 36 M 46 / 124 M3039 6:21 KICKIN' ASPHALT
282 31:44 1452 REENA D. RAMPERSAD 39 F 22 / 267 F3039 6:21 ON THE MOVE WITH MIKE TRA
283 31:44 1104 KAREN HACKETT 46 F 15 / 157 F4049 6:21 TEAM NAGICO
284 31:44 641 BRYANNA WILSON 13 F 23 / 165 F-U20 6:21
285 31:46 84 RACHEL STODDARD 17 F 24 / 165 F-U20 6:22
286 31:48 2 ALLIAN CAPSAN 13 F 25 / 165 F-U20 6:22
287 31:52 219 DESHAPRIYA BANDARA 39 M 47 / 124 M3039 6:23 KEE CHANONA FITNESS
288 31:53 377 NISHA NATH 43 F 16 / 157 F4049 6:23
289 31:54 2158 THOMAS BLICKLEY 30 M 48 / 124 M3039 6:23
290 31:56 359 NASSOMA RUIZ 23 F 17 / 190 F2029 6:24 X #TEAMGUSTINE
291 31:57 56 KEETALEE CAPSAN 38 F 23 / 267 F3039 6:24
292 32:00 1724 VICTORIA MALONEY 27 F 18 / 190 F2029 6:24
293 32:01 932 HELEN JOSEPH 38 F 24 / 267 F3039 6:25
294 32:03 1146 KERRON HENRY 14 M 67 / 165 M-U20 6:25 TEAM DIEGO MARTIN NORTH S
295 32:04 620 AVRIL WILSON 55 F 5 / 77 F5059 6:25
296 32:04 1232 LISA CHARLES-JAMES 45 F 17 / 157 F4049 6:25
297 32:05 338 MARK MASON 40 M 37 / 90 M4049 6:25 TEAM COCA-COLA
298 32:06 2048 DENISE HACKETT 53 F 6 / 77 F5059 6:26
299 32:09 1240 LOUIS HERNANDEZ 54 M 20 / 48 M5059 6:26 TEAM AGD
300 32:09 1134 KEITH WARREN 61 M 3 / 18 M60+ 6:26
301 32:15 2051 KEYON JAMES 19 M 68 / 165 M-U20 6:27
302 32:21 2043 THERESA WILLIAMS 32 F 25 / 267 F3039 6:29 BERMUDEZ WHEAT CRISPS TE
303 32:21 2036 JOEL MELVILLE 31 M 49 / 124 M3039 6:29 BERMUDEZ WHEAT CRISPS TE
304 32:22 1302 MARK BISHOP 26 M 34 / 86 M2029 6:29
305 32:23 769 DAREN RAMKISSOON 39 M 50 / 124 M3039 6:29 X
306 32:34 365 NEETA SUDAMA 33 F 26 / 267 F3039 6:31
307 32:34 288 KAREN DICKENSON 44 F 18 / 157 F4049 6:31
308 32:37 347 MEHINDRA PERSAD 26 M 35 / 86 M2029 6:32 SHARP SHOOTERS
309 32:41 1894 NIKEETA MONGROO 29 F 19 / 190 F2029 6:33
310 32:43 2243 DELESSE FRANCIS 31 F 27 / 267 F3039 6:33
311 32:43 2242 CHERISE ROBINSON 36 F 28 / 267 F3039 6:33
312 32:44 442 SHEREL DE SHONG 31 F 29 / 267 F3039 6:33 I-B-PRO-FUN
313 32:45 452 STEPHEN SEEPERSAD 32 M 51 / 124 M3039 6:33
314 32:45 2021 MCKELLY JOSEPH 28 M 36 / 86 M2029 6:33 EBTKD
315 32:49 1519 SALISHA ALI 40 F 19 / 157 F4049 6:34
316 32:50 473 VARUN RAMSARAN 27 M 37 / 86 M2029 6:34 X
317 32:53 512 ALANA ROCHARD 36 F 30 / 267 F3039 6:35 X ROCHARD5
318 33:00 1319 MONIQUE MITCHELL 24 F 20 / 190 F2029 6:36
319 33:01 2182 ROXANNE MELVILLE 41 F 20 / 157 F4049 6:37
320 33:08 688 CHARLY-ANN DE PEZA-COLLINS 38 F 31 / 267 F3039 6:38
321 33:09 2239 ANJILI SEEREERAM 38 F 32 / 267 F3039 6:38 WORLD'S OKAYEST RUNNERS
322 33:11 862 ETHAN LE BLANC 9 M 69 / 165 M-U20 6:39
323 33:12 1645 STEVEN DILLON 38 M 52 / 124 M3039 6:39
324 33:13 1359 NICHOLE CHASE 48 F 21 / 157 F4049 6:39
325 33:17 2340 QUINCY TYNER 43 M 38 / 90 M4049 6:40
326 33:23 101 SALAHUDEEN MOHAMMED 29 M 38 / 86 M2029 6:41
327 33:23 1314 MILA CARTER 15 F 26 / 165 F-U20 6:41 TEAM MAPLE LEAF
328 33:35 600 ARIEL RAMGOOLAM 30 F 33 / 267 F3039 6:43
329 33:37 907 GOOMMATIE RATTAN 35 F 34 / 267 F3039 6:44
330 33:37 1271 MARISA GEOFFROY-ROOPLAL 29 F 21 / 190 F2029 6:44
331 33:39 1780 ASHRAM SOOKHAI 55 M 21 / 48 M5059 6:44
332 33:41 215 DERELL O'BRIEN 14 M 70 / 165 M-U20 6:45 TEAM MUCURAPO EAST
333 33:44 1821 DWAYNE CLARKE 21 M 39 / 86 M2029 6:45 X
334 33:45 1380 NOAH TEXIERA 11 F 27 / 165 F-U20 6:45 TEAM MAPLE LEAF
335 33:49 885 GARY WATSON 47 M 39 / 90 M4049 6:46
336 33:51 1949 VISHNU RAMA 45 M 40 / 90 M4049 6:47
337 33:52 1998 KEVIN DAVIS 38 M 53 / 124 M3039 6:47 TEAM SBCS
338 33:58 1341 NATHANIEL JULIEN 12 M 71 / 165 M-U20 6:48 TEAM MAPLE LEAF
339 34:00 388 PETAL ST. LOUIS 35 F 35 / 267 F3039 6:48
340 34:04 949 ISUYA ALI 26 F 22 / 190 F2029 6:49
341 34:04 1020 JENILLE GAFFOOR 42 F 22 / 157 F4049 6:49
342 34:04 1516 SAI SAIDU 16 M 72 / 165 M-U20 6:49 TEAM HILLVIEW COLLEGE ROA
343 34:05 2327 DONNA-MARIA PITT 26 F 23 / 190 F2029 6:49
344 34:06 893 GENTLE LONDON 25 M 40 / 86 M2029 6:50 KICKIN' ASPHALT
345 34:07 633 BRENT WOO LING 43 M 41 / 90 M4049 6:50
346 34:07 209 DAVE KHALAWAN 47 M 42 / 90 M4049 6:50
347 34:07 2165 RAVON RAJPAUL 24 M 41 / 86 M2029 6:50
348 34:09 2030 ARUNA MAHABIRNEXAR 39 F 36 / 267 F3039 6:50
349 34:09 2052 ROXANNE APPING 26 F 24 / 190 F2029 6:50
350 34:13 860 ETHAN PEDRO 15 F 28 / 165 F-U20 6:51
351 34:18 1642 STERLING ADAMS 54 M 22 / 48 M5059 6:52
352 34:18 1097 KANNAN GOPIE 14 M 73 / 165 M-U20 6:52 TEAM HILLVIEW COLLEGE ROA
353 34:19 637 BRIANNA FERGUSON 15 F 29 / 165 F-U20 6:52
354 34:19 551 ANAIS FERGUSON 15 F 30 / 165 F-U20 6:52
355 34:21 1460 RENNIE MANGAL 33 M 54 / 124 M3039 6:53 X
356 34:30 606 ARYN BAILEY 13 F 31 / 165 F-U20 6:54 TEAM HILLVIEW COLLEGE ROA
357 34:30 41 EMILY RAMIREZ 26 F 25 / 190 F2029 6:54
358 34:33 1638 STEPHEN FRASER 53 M 23 / 48 M5059 6:55
359 34:33 1116 KATHRYN DENBOW 39 F 37 / 267 F3039 6:55 X RUN LIKE THE WINDED
360 34:44 2217 OLIVIA NAVARRO 27 F 26 / 190 F2029 6:57
361 34:45 1202 LANA MAHADEO 15 F 32 / 165 F-U20 6:57 TEAM MAPLE LEAF
362 34:46 1158 KEVIN GARCIA 40 M 43 / 90 M4049 6:58
363 34:48 2238 GISELLE SIU 38 F 38 / 267 F3039 6:58 WORLD'S OKAYEST RUNNERS
364 34:49 1304 MICHAEL DOLABAILLE 64 M 4 / 18 M60+ 6:58 TEAM NAGICO
365 34:50 1565 SHARON GARCIA 55 F 7 / 77 F5059 6:58
366 34:51 1349 NEIL GOPEESINGH 25 M 42 / 86 M2029 6:59
367 34:55 405 RIAD JAYARAM 32 M 55 / 124 M3039 6:59 TEAM COCA-COLA
368 35:00 141 ALVIANN THOMPSON 27 F 27 / 190 F2029 7:00
369 35:01 1282 MARLON SEALES 45 M 44 / 90 M4049 7:01
370 35:03 23 CELINE MILLER 20 F 28 / 190 F2029 7:01
371 35:04 1575 SHEMIAH LEZAMA 7 F 33 / 165 F-U20 7:01 TEAM NAGICO
372 35:05 897 GERARD GRAHAM 27 M 43 / 86 M2029 7:01 TEAM NAGICO
373 35:06 1430 RACHEL LEZAMA 25 F 29 / 190 F2029 7:02 TEAM NAGICO
374 35:12 28 DARIUS GORDON 25 M 44 / 86 M2029 7:03
375 35:12 1125 KAYLEE NOEL 10 F 34 / 165 F-U20 7:03
376 35:14 1114 KASHTA OME 42 M 45 / 90 M4049 7:03
377 35:17 2202 ALICIA GUY 41 F 23 / 157 F4049 7:04
378 35:18 1342 NATUSHKA LATCHMAN 27 F 30 / 190 F2029 7:04 MCCANN POS
379 35:19 1077 JUDAH WILSON 15 M 74 / 165 M-U20 7:04 TEAM DIEGO MARTIN NORTH S
380 35:19 253 JACQUEZ BYNG 22 M 45 / 86 M2029 7:04 GOLDEN EAGLES
381 35:19 834 ELENA MARQUEZ 22 F 31 / 190 F2029 7:04
382 35:21 2208 SARAHJANE HUTCHERSON 44 F 24 / 157 F4049 7:05
383 35:22 1561 SHARARD BROWNE 17 M 75 / 165 M-U20 7:05 #TEAMTASHASBEAUTYSALON
384 35:23 40 EMILY BARCLAY 35 F 39 / 267 F3039 7:05
385 35:26 541 ALONZO WILLIAMS 14 M 76 / 165 M-U20 7:06 TEAM DIEGO MARTIN NORTH S
386 35:29 2331 JON-MARC JARDINE 17 M 77 / 165 M-U20 7:06
387 35:31 980 JANELLE JORDAN 35 F 40 / 267 F3039 7:07 CRUISE CONTROL
388 35:31 1425 RAAVOHN LANGAIGNE 26 M 46 / 86 M2029 7:07
389 35:34 761 DANICA LIVINGSTON 28 F 32 / 190 F2029 7:07
390 35:34 1394 ORNELLA DICK 27 F 33 / 190 F2029 7:07 TEAM SBCS
391 35:35 1217 LESLEYANN BADAL 46 F 25 / 157 F4049 7:07 MCCANN POS
392 35:38 1677 TERRANCE PIERRE 41 M 46 / 90 M4049 7:08
393 35:38 2151 NARADA WILSON 29 M 47 / 86 M2029 7:08
394 35:39 2071 CATHY-ANN MARKS 51 F 8 / 77 F5059 7:08
395 35:40 180 CALLISTRA WATKINS 58 F 9 / 77 F5059 7:08 X #TEAMGUSTINE
396 35:40 1207 LAUREL LEZAMA- LEE SING 36 F 41 / 267 F3039 7:08 SJC POS PPA
397 35:43 985 JANET BERNARD-ROUSSEU 65 F 3 / 25 F60+ 7:09
398 35:44 1415 PERRY KEIZER 44 M 47 / 90 M4049 7:09 CORBIN COMMUNICATIONS
399 35:46 2390 LILLIAN FARFAN 42 F 26 / 157 F4049 7:10
400 35:46 441 SHARON HOWARD 44 F 27 / 157 F4049 7:10 TEAM COCA-COLA
401 35:47 1784 BARBARA SANTOKIE 52 F 10 / 77 F5059 7:10 TEAM HIGH STREET
402 35:49 720 CHRISTOPHER SAMMY 7 M 78 / 165 M-U20 7:10
403 35:49 1652 SUSAN RUSSELL 46 F 28 / 157 F4049 7:10 X
404 35:51 310 KHEISHA NICHOLLS 31 F 42 / 267 F3039 7:11 TEAM ARIMA
405 35:52 283 JUNIOR DHORAY M / 7:11 TEAM COCA-COLA
406 35:54 1850 KEISHA BARCELLOS 32 F 43 / 267 F3039 7:11
407 35:54 270 JO-ANN HEM LEE 57 F 11 / 77 F5059 7:11
408 35:54 996 JASON THOMAS 39 M 56 / 124 M3039 7:11 X
409 36:06 407 RICHARD PATINO 67 M 5 / 18 M60+ 7:14
410 36:08 1623 STACEY MORANG 42 F 29 / 157 F4049 7:14
411 36:09 1047 JOEL MONIQUETTE 30 M 57 / 124 M3039 7:14 X KICKIN' ASPHALT
412 36:10 561 ANDREW MC CARTHY 55 M 24 / 48 M5059 7:14
413 36:10 131 ADESH BEHARRY 25 M 48 / 86 M2029 7:14
414 36:11 524 ALICIA JOSEPH 39 F 44 / 267 F3039 7:15 ROCHARD5
415 36:11 2231 CHRISTOPHER BEEPATH 34 M 58 / 124 M3039 7:15 KBOK PLUS 1
416 36:12 636 BRIAN RAMKISSON 29 M 49 / 86 M2029 7:15 TEAM SBCS
417 36:13 1995 REBECCA THOMAS 32 F 45 / 267 F3039 7:15
418 36:13 1857 KIMBERLY MAHARAJ 21 F 34 / 190 F2029 7:15
419 36:14 1088 JUSTIN JAGARSAR 30 M 59 / 124 M3039 7:15
420 36:15 878 GABRIELLA ALI 15 F 35 / 165 F-U20 7:15
421 36:18 1256 MARC ARNEAUD 41 M 48 / 90 M4049 7:16 MCCANN POS
422 36:20 1558 SHANNON ALONZO 29 F 35 / 190 F2029 7:16 TEAM MAPLE LEAF
423 36:22 165 ASHA SANMOOGAN 43 F 30 / 157 F4049 7:17
424 36:26 301 KESHIAN GOPICHANSINGH 31 M 60 / 124 M3039 7:18 TEAM COCA-COLA
425 36:27 1573 SHELLY ANN DOLABAILLE 24 F 36 / 190 F2029 7:18 TEAM NAGICO
426 36:27 1592 SHINICE DOLABAILLE 24 F 37 / 190 F2029 7:18 TEAM NAGICO
427 36:27 890 GENEILLE LEZAMA 32 F 46 / 267 F3039 7:18 TEAM NAGICO
428 36:30 1274 MARISSA GEORGE 14 F 36 / 165 F-U20 7:18 TEAM MUCURAPO EAST
429 36:30 1766 ALISHA ALI 31 F 47 / 267 F3039 7:18
430 36:34 652 CANDICE CLARKE 31 F 48 / 267 F3039 7:19
431 36:34 260 JASON KATWAROO 29 M 50 / 86 M2029 7:19
432 36:35 1333 NATALIE COOLSLARTIGUE 49 F 31 / 157 F4049 7:19 EMPEROR AVE POSSE
433 36:35 605 ARYAMAN DEY 12 M 79 / 165 M-U20 7:19 TEAM MAPLE LEAF
434 36:37 792 DEBRA LEZAMA 57 F 12 / 77 F5059 7:20 TEAM NAGICO
435 36:41 2277 NICOLE CHILDS 29 F 38 / 190 F2029 7:21
436 36:41 2328 AMANDA GREENIDGE 27 F 39 / 190 F2029 7:21
437 36:43 2307 RUDY MAHARAJ 53 M 25 / 48 M5059 7:21
438 36:44 917 HANNAH LEON 14 F 37 / 165 F-U20 7:21 TEAM MAPLE LEAF
439 36:46 2058 VASHTIE BAJNATH 40 F 32 / 157 F4049 7:22
440 36:47 1844 JOSIAH CUPID 12 M 80 / 165 M-U20 7:22
441 36:47 2250 PORTIA DALIP SINGH 32 F 49 / 267 F3039 7:22
442 36:47 2197 SAVANNA LAKE 0 F 1 / 2 NO-AG 7:22
443 36:48 2103 JANINE BOODRAM 24 F 40 / 190 F2029 7:22
444 36:49 2056 ALICIA SYLVESTER 43 F 33 / 157 F4049 7:22
445 36:50 2078 JOSIAH CAYENNE-FRANCIS 14 M 81 / 165 M-U20 7:22 FR.PATHFINDER CLUB
446 36:51 2272 KIMBERLY NICHOLAS F / 7:23 TEAM TRINCITY
447 36:51 1845 KALA WILTSHIRE 32 F 50 / 267 F3039 7:23 A AND F FITNESS
448 36:51 1853 KERON PEREZ 38 M 61 / 124 M3039 7:23 A AND F FITNESS
449 36:52 1781 AVANELE GREAVES 30 F 51 / 267 F3039 7:23
450 36:57 508 ALAIH GRANT 28 F 41 / 190 F2029 7:24 X CARD OPERATIONS TEAM
451 37:02 1059 JOS-ANNE FARRELL 31 F 52 / 267 F3039 7:25
452 37:03 1343 NAVARRO DOOKIE 67 M 6 / 18 M60+ 7:25
453 37:07 970 JAMARI DEGALE 14 M 82 / 165 M-U20 7:26 TEAM HILLVIEW COLLEGE ROA
454 37:10 2282 SELENA MEDINA 16 F 38 / 165 F-U20 7:26 MINISTRY OF WORKS AND TRA
455 37:12 2279 LISA ALEXIS CADETTE 45 F 34 / 157 F4049 7:27 MINISTRY OF WORKS AND TRA
456 37:13 644 CAMERON BURGESS 14 M 83 / 165 M-U20 7:27 TEAM MAPLE LEAF
457 37:13 870 FIONNUALA MIKE 13 F 39 / 165 F-U20 7:27 TEAM MAPLE LEAF
458 37:15 2171 DAVE BALDEO 43 M 49 / 90 M4049 7:27 SABRES MULTI SPORT CLUB
459 37:15 64 KISH MITCHELL 34 F 53 / 267 F3039 7:27
460 37:16 1723 VICTORIA SURAJDEEN 47 F 35 / 157 F4049 7:28 #NAME?
461 37:16 2261 ALVIANA` MARAJ 29 F 42 / 190 F2029 7:28
462 37:17 1058 JOSANNE JOYEAU 35 F 54 / 267 F3039 7:28
463 37:20 36 DYMPHANA MC EACHRANE 46 M 50 / 90 M4049 7:28 RBC COUVA
464 37:20 75 NATALIE HYPOLITE 39 F 55 / 267 F3039 7:28
465 37:20 343 MAURICE BALKISSOON 38 M 62 / 124 M3039 7:28 RIDGE RUNNERS
466 37:21 2035 THYNISHA BASCOMBE 37 F 56 / 267 F3039 7:29 BERMUDEZ WHEAT CRISPS TE
467 37:21 70 MARIA MOSS-WILKINSON 38 F 57 / 267 F3039 7:29
468 37:27 311 KIONA ASSING 28 F 43 / 190 F2029 7:30 EBTKD
469 37:28 1143 KEON JAMES 45 M 51 / 90 M4049 7:30
470 37:30 1389 OMAR SINGH 25 M 51 / 86 M2029 7:30 X CARD OPERATIONS TEAM
471 37:30 139 ALTHEA SPENCE 45 F 36 / 157 F4049 7:30
472 37:31 635 BRIAN PATINO 64 M 7 / 18 M60+ 7:31
473 37:34 1764 ALAN UMRAW 37 M 63 / 124 M3039 7:31
474 37:34 1902 PRISCILLA DE VERTEUIL 27 F 44 / 190 F2029 7:31
475 37:38 2270 ANDRE LA RODE 43 M 52 / 90 M4049 7:32 MINISTRY OF WORKS AND TRA
476 37:38 2268 JENEFER MEDINA 60 F 4 / 25 F60+ 7:32 MINISTRY OF WORKS AND TRA
477 37:40 2278 RHONDA ABLACKSINGH 37 F 58 / 267 F3039 7:32 MINISTRY OF WORKS AND TRA
478 37:40 2280 RIA CHARLES 37 F 59 / 267 F3039 7:32 MINISTRY OF WORKS AND TRA
479 37:42 1993 DEBRA PAUL-BURGESS 44 F 37 / 157 F4049 7:33 TEAM MAPLE LEAF
480 37:42 2269 SHURLA LA RODE 44 F 38 / 157 F4049 7:33 MINISTRY OF WORKS AND TRA
481 37:42 280 JOSEPH-ORION STUART 12 M 84 / 165 M-U20 7:33 CROMPTON SPORTS CLUB
482 37:44 822 DONNA LOGAN 34 F 60 / 267 F3039 7:33 X
483 37:44 984 JANELLEIA ROBERTS 28 F 45 / 190 F2029 7:33 X
484 37:45 1339 NATASHA MOHAMMED-WATSON 44 F 39 / 157 F4049 7:33
485 37:46 393 RACHAEL MELVILLE 27 F 46 / 190 F2029 7:34
486 37:47 2290 PRABHAWATIE RAMDIAL 46 F 40 / 157 F4049 7:34
487 37:51 104 SARAH LUCAS 40 F 41 / 157 F4049 7:35
488 37:52 1356 NICHOLAS CUMBERBATCH 26 M 52 / 86 M2029 7:35
489 37:53 2245 SASHA SUKHRAM 28 F 47 / 190 F2029 7:35
490 37:54 573 ANISHA ROMANY 25 F 48 / 190 F2029 7:35 X
491 37:56 404 RIA CHRYSOSTOM RYAN 38 F 61 / 267 F3039 7:36 THE MARILYN CHRYSOSTOM SC
492 37:56 2368 JONNATHAN NELSON 72 M 8 / 18 M60+ 7:36
493 37:57 427 SAMANTHA TYSON 27 F 49 / 190 F2029 7:36 X
494 38:01 2304 SHIVANNA RAMDENNY 35 F 62 / 267 F3039 7:37
495 38:02 198 CLAUDIA WILLOCK 41 F 42 / 157 F4049 7:37 DE ENGERIZER BUNNY
496 38:03 1132 KEISHELLE STRACHAN 29 F 50 / 190 F2029 7:37
497 38:09 2325 CRYSTAL BENJAMIN 32 F 63 / 267 F3039 7:38
498 38:14 135 ALICIA THOM 46 F 43 / 157 F4049 7:39 FAVOURED BY GOD
499 38:19 857 ERROL CHOY TIN 78 M 9 / 18 M60+ 7:40
500 38:21 683 CHARLEEN THOMAS 44 F 44 / 157 F4049 7:41
501 38:22 2229 KARLENE AMMON 52 F 13 / 77 F5059 7:41 CORBIN COMMUNICATIONS
502 38:25 396 RAJEANNE GRANT 13 F 40 / 165 F-U20 7:41 #TEAMGUSTINE
503 38:26 499 ADRIANA HOUSTY 12 F 41 / 165 F-U20 7:41 TOTS AND TUMBLERS GYMNAST
504 38:26 877 GABRIELLA THONG 13 F 42 / 165 F-U20 7:42 TOTS AND TUMBLERS GYMNAST
505 38:26 581 ANNE MARIE JOSEPH 17 F 43 / 165 F-U20 7:42 TEAM MUCURAPO EAST
506 38:27 486 ABIGAIL HERRIDGE 12 F 44 / 165 F-U20 7:42 KICKIN' ASPHALT
507 38:28 1701 TRINITY SARGEANT 14 F 45 / 165 F-U20 7:42 TOTS AND TUMBLERS GYMNAST
508 38:28 1197 KYLENE DOWDEN 32 F 64 / 267 F3039 7:42
509 38:32 522 ALIANA WELCH 16 F 46 / 165 F-U20 7:43 TEAM MAPLE LEAF
510 38:32 1010 JEAN-LUC AUSTIN 16 M 85 / 165 M-U20 7:43 TEAM MAPLE LEAF
511 38:33 2005 KIMBERLY COSTELLOE 34 F 65 / 267 F3039 7:43
512 38:33 2240 CATHERINE BAIN 47 F 45 / 157 F4049 7:43
513 38:37 1847 KAREEM WHARWOOD 33 M 64 / 124 M3039 7:44
514 38:38 80 NURIYA MOHAMMED 23 F 51 / 190 F2029 7:44
515 38:39 1933 TALIA DASSYNE 9 F 47 / 165 F-U20 7:44 TEAM HIGH STREET
516 38:39 1934 TAMMIE DASSYNE 37 F 66 / 267 F3039 7:44 TEAM HIGH STREET
517 38:39 801 DENYSE VIEIRA 53 F 14 / 77 F5059 7:44
518 38:40 1798 CHANELLE RAMSINGH 32 F 67 / 267 F3039 7:44 TEAM HIGH STREET
519 38:40 899 GERARD GARCIA 40 M 53 / 90 M4049 7:44
520 38:41 344 MAURICE WHARTON 47 M 54 / 90 M4049 7:45
521 38:41 1999 THECIA BOISSON 42 F 46 / 157 F4049 7:45
522 38:42 1428 RACHAEL SCANTLEBURY 28 F 52 / 190 F2029 7:45 X CARD OPERATIONS TEAM
523 38:42 115 STUART ROBERTS 35 M 65 / 124 M3039 7:45 X CONTACT CENTRE TT
524 38:43 1727 VINDA PERSAD 41 M 55 / 90 M4049 7:45
525 38:44 2092 SUE JOHNSON 35 F 68 / 267 F3039 7:45 FR.PATHFINDER CLUB
526 38:44 624 BAL BOODRAM 60 M 10 / 18 M60+ 7:45
527 38:47 1348 NEIL GARCIA 38 M 66 / 124 M3039 7:46
528 38:49 1404 PATRICIA CALISTE 24 F 53 / 190 F2029 7:46 TEAM NAGICO
529 38:52 2271 NEDDA THOMAS STEPHENS 44 F 47 / 157 F4049 7:47 MINISTRY OF WORKS AND TRA
530 38:52 2273 CINDY DOWRIDGE 39 F 69 / 267 F3039 7:47 MINISTRY OF WORKS AND TRA
531 38:53 2267 KAREN RAHAMUT 49 F 48 / 157 F4049 7:47 MINISTRY OF WORKS AND TRA
532 38:53 2276 SHNICE GARNES 24 F 54 / 190 F2029 7:47 MINISTRY OF WORKS AND TRA
533 38:53 2283 WAYNE BRYCE 58 M 26 / 48 M5059 7:47 MINISTRY OF WORKS AND TRA
534 38:55 54 KAREN BISNATH 19 F 48 / 165 F-U20 7:47
535 38:55 474 VASHTI GOORAHLAL 37 F 70 / 267 F3039 7:47 RIDGE RUNNERS
536 38:55 515 ALEX ROCHARD 11 M 86 / 165 M-U20 7:47
537 38:57 1301 MELISSA GEOFFROY 24 F 55 / 190 F2029 7:48
538 38:58 2099 GAIUS EUDOXIE 42 M 56 / 90 M4049 7:48 TEAM EUDOXIE
539 39:01 2298 GABRIELLE GHANY 12 F 49 / 165 F-U20 7:49
540 39:02 357 NADINE MITCHELL 43 F 49 / 157 F4049 7:49 DE ENGERIZER BUNNY
541 39:02 2297 PETER GHANY 46 M 57 / 90 M4049 7:49
542 39:03 1906 RAMONA TANG HAP 49 F 50 / 157 F4049 7:49
543 39:03 1805 CURTIS TANG HAP 53 M 27 / 48 M5059 7:49
544 39:04 1096 KAMILAH OSBORNE 29 F 56 / 190 F2029 7:49
545 39:05 1903 RAEVAE CHRYSOSTOM 29 F 57 / 190 F2029 7:49
546 39:06 213 DENIECE WILLIAMS-ALLEYNE 39 F 71 / 267 F3039 7:50
547 39:07 330 MALISSA EDWARDS 32 F 72 / 267 F3039 7:50 DE ENGERIZER BUNNY
548 39:08 51 JUDY MILLER 47 F 51 / 157 F4049 7:50
549 39:09 1398 PAIGE RIBEIRO-AGARD 21 F 58 / 190 F2029 7:50 SAVAGE CREW
550 39:10 149 ANDY WONG-KEE 34 M 67 / 124 M3039 7:50 TEAM COCA-COLA
551 39:12 538 ALLISON MILLS 40 F 52 / 157 F4049 7:51 TEAM NAGICO
552 39:16 595 ANTONIO FORD M / 7:52 TEAM MUCURAPO EAST
553 39:17 1008 JEAN CHRISTOPHE BRANCHE 32 M 68 / 124 M3039 7:52 TEAM MUCURAPO EAST
554 39:21 414 RONDELL SKEETE 28 M 53 / 86 M2029 7:53 I-B-PRO-FUN
555 39:28 617 AVALENE LEE FOON 30 F 73 / 267 F3039 7:54 X
556 39:28 203 CRYSTAL PESNELL-JORDAN 37 F 74 / 267 F3039 7:54
557 39:30 610 ASHA TOUS 34 F 75 / 267 F3039 7:54
558 39:31 530 ALICIA CAMERON 41 F 53 / 157 F4049 7:55 TEAM SBCS
559 39:31 155 ANTHONY ALI 53 M 28 / 48 M5059 7:55 ALI
560 39:31 1732 WENDY CADIZ-CLARKE 34 F 76 / 267 F3039 7:55 FITNESS 360
561 39:31 1071 JOSHUA MOHAMMED 12 M 87 / 165 M-U20 7:55 TEAM MAPLE LEAF
562 39:32 1611 SITA LEWIS 55 F 15 / 77 F5059 7:55 TEAM AGD
563 39:34 1417 PETAL BHARAT 34 F 77 / 267 F3039 7:55 SURGE KATALYST
564 39:37 1757 ZINDZI JOHN 30 F 78 / 267 F3039 7:56 RUN LIKE THE WINDED
565 39:37 815 DIRK BAILEY 32 M 69 / 124 M3039 7:56 RUN LIKE THE WINDED
566 39:38 1113 KASHA ALEONG 29 F 59 / 190 F2029 7:56 TEAM MAPLE LEAF
567 39:38 1871 LUENDA MOORE 40 F 54 / 157 F4049 7:56
568 39:45 1487 ROCHELLE REGIS 27 F 60 / 190 F2029 7:57 X
569 39:45 1543 SEAN RAMIREZ 32 M 70 / 124 M3039 7:57 PRICEWATERHOUSECOOPERS
570 39:48 2259 DAMIAN BABOOLAL 32 M 71 / 124 M3039 7:58
571 39:49 138 ALTHEA DE GAZON-ALI 53 F 16 / 77 F5059 7:58 ALI
572 39:50 291 KATHLEEN RAMKISSOON 24 F 61 / 190 F2029 7:58 ALI
573 39:54 229 ELI MANRAKHAN 33 M 72 / 124 M3039 7:59 KEE CHANONA FITNESS
574 39:55 535 ALLISON DOUGLAS 41 F 55 / 157 F4049 7:59 DOUGLAS
575 39:56 1297 MAXINE TANNIS 32 F 79 / 267 F3039 8:00 PRICEWATERHOUSECOOPERS
576 39:59 105 SARAJUDEEN MOHAMMED 34 M 73 / 124 M3039 8:00
577 40:00 1087 JUSTIN GARCIA 21 M 54 / 86 M2029 8:00 TTRRC
578 40:00 1609 SINEAD ELLIS 26 F 62 / 190 F2029 8:00 X
579 40:02 957 JACQUELINE ALEXIS 60 F 5 / 25 F60+ 8:01 X RBC
580 40:02 745 CRYSTAL DIPSINGH-BACHOO 35 F 80 / 267 F3039 8:01
581 40:02 1106 KAREN MOHAMMED - NARACE 31 F 81 / 267 F3039 8:01
582 40:04 1794 CAROL RAGOOBAR 50 F 17 / 77 F5059 8:01
583 40:05 1279 MARLANE PAUL 31 F 82 / 267 F3039 8:01 KICKIN' ASPHALT
584 40:06 2144 JASON DES VIGNES 33 M 74 / 124 M3039 8:02
585 40:06 765 DANIELLE LOGAN 28 F 63 / 190 F2029 8:02
586 40:10 2195 LEIGH CABRAL 36 F 83 / 267 F3039 8:02
587 40:10 881 GABRIELLE ESDALE 16 F 50 / 165 F-U20 8:02 TEAM MAPLE LEAF
588 40:11 66 KUMAR MOHAN 35 M 75 / 124 M3039 8:03 SABRES MULTI SPORT CLUB
589 40:13 841 ELLA HERRERA 16 F 51 / 165 F-U20 8:03 TEAM MAPLE LEAF
590 40:18 400 RENEE CHRYSOSTOM THOMAS 40 F 56 / 157 F4049 8:04 THE MARILYN CHRYSOSTOM SC
591 40:26 1451 REENA BAHAW 40 F 57 / 157 F4049 8:06 X
592 40:28 1350 NEKESHA MORRIS 38 F 84 / 267 F3039 8:06 X KICKIN' ASPHALT
593 40:28 1656 SUZANNE MATTHISON-BRERETON 46 F 58 / 157 F4049 8:06 KICKIN' ASPHALT
594 40:28 1960 NATALIE ALEXANDER 46 F 59 / 157 F4049 8:06 X
595 40:30 302 KEVIN SAMMY 39 M 76 / 124 M3039 8:06 KEE CHANONA FITNESS
596 40:30 159 ARIA CLAIRMONT 25 F 64 / 190 F2029 8:06 KEE CHANONA FITNESS
597 40:31 1292 MATHEW DANIEL 34 F 85 / 267 F3039 8:07 TEAM NAGICO
598 40:34 2150 MICHAEL KNIGHT 33 M 77 / 124 M3039 8:07
599 40:35 1719 VERNISE JOSEPH 30 F 86 / 267 F3039 8:07 X
600 40:36 2149 JASMIN WEISSKOPF 26 F 65 / 190 F2029 8:08
601 40:36 476 VESHAL SEEGOBIN 28 M 55 / 86 M2029 8:08
602 40:36 653 CANDICE GITTENS 27 F 66 / 190 F2029 8:08
603 40:37 660 CARISSA THOMAS 25 F 67 / 190 F2029 8:08 X
604 40:37 698 CHENE DOWNIE 25 F 68 / 190 F2029 8:08
605 40:38 506 AISHAH RAHAMAT 18 F 52 / 165 F-U20 8:08 TEAM HILLVIEW COLLEGE ROA
606 40:45 176 BREQUELLE TIMOTHY 33 F 87 / 267 F3039 8:09
607 40:47 1312 MICHELLE NEWALLO 50 F 18 / 77 F5059 8:10
608 40:49 1161 KEVON GRIFFITH 24 M 56 / 86 M2029 8:10 TEAM NAGICO
609 40:52 415 RONDELL RAMDEO 25 M 57 / 86 M2029 8:11 TEAM COCA-COLA
610 40:53 646 CAMILLE ALFONSO FERGUSON 48 F 60 / 157 F4049 8:11
611 40:56 1109 KARLA CROPPER 47 F 61 / 157 F4049 8:12
612 40:56 332 MANICK NANLAL 52 M 29 / 48 M5059 8:12 TEAM COCA-COLA
613 40:57 2024 NADINE SEEBERAN 44 F 62 / 157 F4049 8:12
614 41:01 491 ADELE RAMGOOLAM 23 F 69 / 190 F2029 8:13
615 41:01 1119 KATHY ANN RICHARDS 44 F 63 / 157 F4049 8:13 ROCHARD5
616 41:03 2172 NICHOLA CHIN LEE 39 F 88 / 267 F3039 8:13
617 41:04 2176 CHRISTA PANTIN 43 F 64 / 157 F4049 8:13
618 41:08 1787 BRIANNE BOBB 15 F 53 / 165 F-U20 8:14
619 41:08 1073 JOVANNI SANDERSON 15 M 88 / 165 M-U20 8:14 TEAM DIEGO MARTIN NORTH S
620 41:09 470 TRISTA SAMMY 38 F 89 / 267 F3039 8:14 KEE CHANONA FITNESS
621 41:11 795 DENA RENWICK 39 F 90 / 267 F3039 8:15
622 41:16 1016 JENELLE CIPRIANI 48 F 65 / 157 F4049 8:16 FITNESS 360
623 41:16 1192 KRYSTLE LAKE 29 F 70 / 190 F2029 8:16 FITNESS 360
624 41:17 2037 SEPHRA ANDREWS-VALVE 33 F 91 / 267 F3039 8:16 BERMUDEZ WHEAT CRISPS TE
625 41:17 2180 BRANDON CHIN 23 M 58 / 86 M2029 8:16
626 41:18 2089 KIEFA RAVELLO 14 M 89 / 165 M-U20 8:16 FR.PATHFINDER CLUB
627 41:18 137 ALKHANSA WARD 30 F 92 / 267 F3039 8:16
628 41:22 43 ESTHER NICHOLSON 48 F 66 / 157 F4049 8:17
629 41:24 2163 KYLE KISSOON 24 M 59 / 86 M2029 8:17
630 41:27 2017 ALICIA AHEE-SMITH 49 F 67 / 157 F4049 8:18 X
631 41:29 1867 LEISL INDARSINGH 51 F 19 / 77 F5059 8:18
632 41:31 547 AMOY HERRIDGE 18 F 54 / 165 F-U20 8:18 KICKIN' ASPHALT
633 41:31 1952 AMRESH SINGH 30 M 78 / 124 M3039 8:19
634 41:32 1667 TAMARA ST LOUIS 41 F 68 / 157 F4049 8:19 X
635 41:33 1959 KELLY SEEMUNGAL 29 F 71 / 190 F2029 8:19
636 41:34 136 ALISON SURAJDEEN 58 F 20 / 77 F5059 8:19 X NOSTRO
637 41:35 1042 JOANN GOMES 60 F 6 / 25 F60+ 8:19 SJC POS PPA
638 41:35 1697 TRICIA LOHR-GOVIA 44 F 69 / 157 F4049 8:19
639 41:36 1974 SHANE LUE CHOY 43 M 58 / 90 M4049 8:20
640 41:36 1017 JENELLE ALEXANDER-RAMKISSOON 34 F 93 / 267 F3039 8:20 X
641 41:37 1338 NATASHA MARQUEZ 48 F 70 / 157 F4049 8:20
642 41:42 2311 SACHA BAYNES 34 F 94 / 267 F3039 8:21
643 41:42 2312 NAEEM BAYNES 10 M 90 / 165 M-U20 8:21
644 41:43 2095 SHIVANA RAMSINGH 25 F 72 / 190 F2029 8:21 EBTKD
645 41:45 1387 ODESSA GEORGE 54 F 21 / 77 F5059 8:21
646 41:53 672 CAYLA GREAVES 14 F 55 / 165 F-U20 8:23 DOUGLAS
647 41:54 1799 CHEVORN ASHTON 37 F 95 / 267 F3039 8:23 PRIVATE BANKING & FIN
648 41:55 1414 PERDIE BRADFORD 14 F 56 / 165 F-U20 8:23 TEAM MAPLE LEAF
649 41:55 574 ANJALI RAMDIN 13 F 57 / 165 F-U20 8:23 TEAM MAPLE LEAF
650 41:56 944 ISABELLE MEAHJOHN 14 F 58 / 165 F-U20 8:24 TEAM MAPLE LEAF
651 41:59 493 ADIL HAFEEZ 35 M 79 / 124 M3039 8:24 TEAM NAGICO
652 41:59 341 MARSHA WHARTON 50 F 22 / 77 F5059 8:24
653 42:00 962 JAHAILE RODRIGUEZ 19 M 91 / 165 M-U20 8:24 X CARD OPERATIONS TEAM
654 42:03 38 EDMOND RAMIREZ 33 M 80 / 124 M3039 8:25
655 42:05 1800 CHRISTIAN MAHARAJ 9 M 92 / 165 M-U20 8:25
656 42:12 2077 NOAMI WALTERS 12 F 59 / 165 F-U20 8:27 FR.PATHFINDER CLUB
657 42:17 1922 SHARON BASARATH 57 F 23 / 77 F5059 8:28
658 42:23 2209 JEANEL MAHON 40 F 71 / 157 F4049 8:29
659 42:23 1390 OMAR THOMAS 36 M 81 / 124 M3039 8:29
660 42:23 1162 KEYARA THOMAS 9 F 60 / 165 F-U20 8:29
661 42:28 205 CYRIL KULATUNGA 54 M 30 / 48 M5059 8:30 KEE CHANONA FITNESS
662 42:28 1883 NATALIA SOOKLALSINGH 28 F 73 / 190 F2029 8:30
663 42:30 2028 EDSON BREEDY 30 M 82 / 124 M3039 8:30 EBTKD
664 42:30 2313 SIOBHAN ROGERS 30 F 96 / 267 F3039 8:30 EBTKD
665 42:32 1118 KATHY RAMDEEN 42 F 72 / 157 F4049 8:31
666 42:37 443 SHERIFFA WARD 55 F 24 / 77 F5059 8:32
667 42:37 2159 GAIL MOHAMMED 46 F 73 / 157 F4049 8:32
668 42:42 1337 NATASHA SOOKDEO 30 F 97 / 267 F3039 8:33 X TEAM- PARK STREET
669 42:42 1102 KAREEM SOOKDEO 8 M 93 / 165 M-U20 8:33 TEAM- PARK STREET
670 42:43 2090 SCANTLEBURY SARGEANT 42 F 74 / 157 F4049 8:33 FR.PATHFINDER CLUB
671 42:47 96 ROOPNARINE KANHAI 49 M 59 / 90 M4049 8:34
672 42:48 1908 RAYMOND GUISHARD 20 M 60 / 86 M2029 8:34 PRIVATE BANKING & FIN
673 42:51 1711 VALERIE-ANN CAMPBELL-WARREN 49 F 75 / 157 F4049 8:35
674 42:52 1900 PAT MAHARAJ 47 M 60 / 90 M4049 8:35
675 42:53 1139 KENDALE JOHN 31 M 83 / 124 M3039 8:35
676 42:55 836 ELIZABETH DE SOUZA 31 F 98 / 267 F3039 8:35 CRUISE CONTROL
677 42:55 1352 NESHA AGARD 29 F 74 / 190 F2029 8:35 CRUISE CONTROL
678 42:56 122 VALENE MC DOUGALL 33 F 99 / 267 F3039 8:36
679 42:58 1187 KRYSTAL PROUDFOOT 28 F 75 / 190 F2029 8:36
680 43:00 1644 STERUMA CHRISTIAN 31 F 100 / 267 F3039 8:36
681 43:00 1576 SHENELLE KHAN 26 F 76 / 190 F2029 8:36
682 43:03 188 CHARMAINE GOKOOL 43 F 76 / 157 F4049 8:37 TEAM ARIMA
683 43:05 1556 SHANICE DRIGGS 24 F 77 / 190 F2029 8:37 X CARD OPERATIONS TEAM
684 43:08 1840 JHASAN DHANIRAM 10 M 94 / 165 M-U20 8:38 MASTER OSH
685 43:10 1771 AMIT DHANIRAM 38 M 84 / 124 M3039 8:38 MASTER OSH
686 43:11 673 CECILIA SOLOZANO 35 F 101 / 267 F3039 8:39
687 43:14 228 EDUARDO WIEBE 46 M 61 / 90 M4049 8:39
688 43:15 1752 ZAHIR JUMAN 39 M 85 / 124 M3039 8:39
689 43:31 33 DIVAIO RAMSAMOOJ 12 M 95 / 165 M-U20 8:43
690 43:32 117 TAHLIA RAMSAMOOJ 8 F 61 / 165 F-U20 8:43 TRINI MOMS HEALTH AND FIT
691 43:34 1972 JYNELLE SINGH 22 F 78 / 190 F2029 8:43 X
692 43:34 2342 JACOB KNUTT 10 M 96 / 165 M-U20 8:43
693 43:35 1975 CATHERINE BURKETTE 54 F 25 / 77 F5059 8:43 X
694 43:36 1991 MARINA SORZANO 49 F 77 / 157 F4049 8:44
695 43:40 732 CLERISA - MARIE PIGGOT 12 F 62 / 165 F-U20 8:44
696 43:41 1270 MARISA MANBODH-PIGGOT 39 F 102 / 267 F3039 8:45 X
697 43:41 651 CANDICE SADAMBARRAM 25 F 79 / 190 F2029 8:45
698 43:45 399 RASHMA RAMKISSOON 25 F 80 / 190 F2029 8:45 X
699 43:46 1670 TANUJA MURALI 25 F 81 / 190 F2029 8:46
700 43:46 1769 AMANDA CUPID 12 F 63 / 165 F-U20 8:46
701 43:48 976 JAMILA WARD 34 F 103 / 267 F3039 8:46
702 43:50 199 CLAUDIA BRUMANT 57 F 26 / 77 F5059 8:46
703 43:56 299 KERRY PIRALI 47 M 62 / 90 M4049 8:48 TEAM COCA-COLA
704 43:57 1330 NALINI GOORAHLAL 32 F 104 / 267 F3039 8:48
705 43:58 1703 TRISH PHILLIP 25 F 82 / 190 F2029 8:48
706 44:00 2222 JULIA CAMPBELL 32 F 105 / 267 F3039 8:48 MANGOTREEFITNESS
707 44:04 395 RAJAPAKSHA WASANTHA 45 M 63 / 90 M4049 8:49 KEE CHANONA FITNESS
708 44:05 2339 DEBRA CALLENDER 51 F 27 / 77 F5059 8:49
709 44:06 126 ZEBUNISSA MOHAMMED-ROA 46 F 78 / 157 F4049 8:50
710 44:07 108 SHAHISTA MOHAMMED 31 F 106 / 267 F3039 8:50
711 44:09 68 LEENA LALLA 39 F 107 / 267 F3039 8:50
712 44:10 1144 KERNESHA RYAN 28 F 83 / 190 F2029 8:50
713 44:19 1988 ZARA MAJID 7 F 64 / 165 F-U20 8:52
714 44:29 1712 VANESSA ST LOUIS 39 F 108 / 267 F3039 8:54
715 44:31 123 VERNETTE SYLVESTER-MEDINA 35 F 109 / 267 F3039 8:55 X
716 44:38 247 HEMANT BOODAI 29 M 61 / 86 M2029 8:56 TEAM COCA-COLA
717 44:39 1980 LORRAINE NERO 45 F 79 / 157 F4049 8:56
718 44:40 823 DONNA BERMENT 38 F 110 / 267 F3039 8:56
719 44:47 145 AMENA BEHARRY 29 F 84 / 190 F2029 8:58 KEE CHANONA FITNESS
720 44:47 1846 KANDISS EDWARDS 28 F 85 / 190 F2029 8:58
721 44:48 1068 JOSHUA BACHAN 36 M 86 / 124 M3039 8:58
722 44:51 543 AMANDA BOUSIGNAC-PHILLIP 44 F 80 / 157 F4049 8:59
723 44:54 1668 TAMIKA WATTS-LEWIS 36 F 111 / 267 F3039 8:59
724 45:00 2007 SUZANNE NG WAI 53 F 28 / 77 F5059 9:00
725 45:00 2006 SHARON NG WAI PANTIN 55 F 29 / 77 F5059 9:00
726 45:05 2193 ELIZA MANTYH 39 F 112 / 267 F3039 9:01
727 45:06 2226 SOLANGE MIKE 47 F 81 / 157 F4049 9:02
728 45:06 942 IMANI MILLS 9 F 65 / 165 F-U20 9:02 TEAM NAGICO
729 45:09 2248 ANISHA KHAN 48 F 82 / 157 F4049 9:02
730 45:09 1773 AMRITA GOSINE 39 F 113 / 267 F3039 9:02
731 45:13 618 AVALON JOHN 45 M 64 / 90 M4049 9:03
732 45:14 939 HILARY HORSFORD 63 F 7 / 25 F60+ 9:03
733 45:14 1023 JENNA-MARIE PREUDHOMME 25 F 86 / 190 F2029 9:03
734 45:14 1661 SYDNEY MILLS 11 F 66 / 165 F-U20 9:03 TEAM NAGICO
735 45:15 1090 K. ANDRE MILLS 40 M 65 / 90 M4049 9:03 TEAM NAGICO
736 45:17 300 KESHA QUASH 33 F 114 / 267 F3039 9:04
737 45:18 2266 SUBASH MOOTOOR 35 M 87 / 124 M3039 9:04 CONTACT CENTRE TT
738 45:23 429 SANDY BEHARRY 37 F 115 / 267 F3039 9:05
739 45:23 287 KAREEM ETTIENNE 28 M 62 / 86 M2029 9:05
740 45:25 719 CHRISTOPHER HINKSON 32 M 88 / 124 M3039 9:05
741 45:25 1181 KOWSIL DIPCHAN 46 F 83 / 157 F4049 9:05
742 45:26 424 RYANNE BABOOLAL-REYES 42 F 84 / 157 F4049 9:06 X TEAM ARIMA
743 45:27 426 SAMANTHA SANKAR-GOOLJAR 26 F 87 / 190 F2029 9:06 SWOLE TRAIN
744 45:28 805 DESTINEE BRITTO 10 F 67 / 165 F-U20 9:06 TEAM ROSEMAND
745 45:29 812 DHIREN RAMBARRAN 18 M 97 / 165 M-U20 9:06 TEAM HILLVIEW COLLEGE ROA
746 45:30 1266 MARIELLE TANNIS 10 F 68 / 165 F-U20 9:06 TEAM ROSEMAND
747 45:30 1628 STACY NURSE 34 F 116 / 267 F3039 9:06 TEAM ROSEMAND
748 45:31 507 AKEELA DILLION 15 F 69 / 165 F-U20 9:06 TEAM ROSEMAND
749 45:31 1229 LISA AWAI 38 F 117 / 267 F3039 9:07 PRICEWATERHOUSECOOPERS
750 45:31 744 CRISTIN HERNANDEZ 15 F 70 / 165 F-U20 9:07 TEAM ROSEMAND
751 45:31 124 WENDELL MC EACHRANE 50 M 31 / 48 M5059 9:07 RBC COUVA
752 45:32 659 CARISSA MC DONALD 10 F 71 / 165 F-U20 9:07 TEAM ROSEMAND
753 45:33 2252 PARMATIE MANNA 28 F 88 / 190 F2029 9:07
754 45:33 533 ALISHA CABRALIS 10 F 72 / 165 F-U20 9:07 TEAM ROSEMAND
755 45:33 2251 SALEEM YACOB 28 M 63 / 86 M2029 9:07
756 45:34 861 ETHAN PERSAD 10 M 98 / 165 M-U20 9:07 TEAM ROSEMAND
757 45:34 591 ANTONIO WADE 15 M 99 / 165 M-U20 9:07 TEAM ROSEMAND
758 45:41 119 TINA GUYADEEN 34 F 118 / 267 F3039 9:09
759 45:41 212 DEBRA HILAIRE 40 F 85 / 157 F4049 9:09
760 45:42 2347 LAURA-MAE GULLIN 44 F 86 / 157 F4049 9:09
761 45:43 1260 MARGUERITE ROCK 25 F 89 / 190 F2029 9:09
762 45:44 1086 JUNIOR BRERETON 59 M 32 / 48 M5059 9:09
763 45:46 2346 CAMILLE EVELYN 27 F 90 / 190 F2029 9:10
764 45:46 181 CANDICE VICTOR 28 F 91 / 190 F2029 9:10 TEAM ARIMA
765 45:47 1633 STEFAN BISSOONDIAL 24 M 64 / 86 M2029 9:10 PRICEWATERHOUSECOOPERS
766 45:50 2206 SADIA GLASGOW 28 F 92 / 190 F2029 9:10
767 45:51 2101 GENELE LEZAMA 27 F 93 / 190 F2029 9:11
768 45:54 1399 PAIGE THOMPSON 12 F 73 / 165 F-U20 9:11 TEAM MAPLE LEAF
769 45:57 1388 OLIVIA THOMPSON 12 F 74 / 165 F-U20 9:12 TEAM MAPLE LEAF
770 46:00 2097 ZAHRA EUDOXIE 17 F 75 / 165 F-U20 9:12 TEAM EUDOXIE
771 46:00 1095 KALLY ALS 38 F 119 / 267 F3039 9:12
772 46:03 2324 LASHELLE CLARK 31 F 120 / 267 F3039 9:13
773 46:14 2102 LEAH WILLIAMS 29 F 94 / 190 F2029 9:15
774 46:14 1062 JOSEPH PALERMO 52 M 33 / 48 M5059 9:15 X
775 46:17 1361 NICOLE RICHARDS 53 F 30 / 77 F5059 9:16
776 46:19 1848 KARINA RAMKHALAWAN 27 F 95 / 190 F2029 9:16
777 46:21 225 DWAYNE LOUISON 24 M 65 / 86 M2029 9:17 KEE CHANONA FITNESS
778 46:21 1535 SASHA MOONSAMMY 30 F 121 / 267 F3039 9:17 MCCANN POS
779 46:22 1856 KHIMRAJ DEONARINE 31 M 89 / 124 M3039 9:17
780 46:25 1224 LILY KNECHTLE 14 F 76 / 165 F-U20 9:17 TEAM MAPLE LEAF
781 46:25 1996 NERISSA ISAAC-RAJKUMAR 36 F 122 / 267 F3039 9:17
782 46:26 789 DEBORAH BENJAMIN 41 F 87 / 157 F4049 9:18
783 46:26 1877 MAXIME JULIEN-JACK 49 F 88 / 157 F4049 9:18 X
784 46:27 1567 SHAWN CAMPBELL 11 M 100 / 165 M-U20 9:18
785 46:29 1865 LEE-ANN BARCELLOS 28 F 96 / 190 F2029 9:18
786 46:30 1710 VALENTINA CARRERO 15 F 77 / 165 F-U20 9:18 TEAM MAPLE LEAF
787 46:45 2341 ADAM GEORGE 3 M 101 / 165 M-U20 9:21
788 46:46 785 DAWNE SPICER 57 F 31 / 77 F5059 9:22 EMPEROR AVE POSSE
789 46:47 2338 TRACEY KNUTT 29 F 97 / 190 F2029 9:22
790 46:49 787 DEBBIE GILL 58 F 32 / 77 F5059 9:22 TEAM NAGICO
791 46:49 856 ERIN BEHARRY 27 F 98 / 190 F2029 9:22 X
792 46:50 1362 NICOLE HOSAM 49 F 89 / 157 F4049 9:22 X
793 46:51 1878 MICAH CALLISTE 8 M 102 / 165 M-U20 9:23
794 46:52 724 CHYNA RAMDEEN 16 F 78 / 165 F-U20 9:23 TEAM NAGICO
795 46:54 257 JANELLE KHAN 40 F 90 / 157 F4049 9:23 KEE CHANONA FITNESS
796 46:57 1313 MICHELLE JUMAN 37 F 123 / 267 F3039 9:24 X
797 47:00 264 JEIAL LEE 19 F 79 / 165 F-U20 9:24 FB VALENCIA
798 47:02 1172 KIM LING CHOY TIN 41 F 91 / 157 F4049 9:25
799 47:04 1182 KRESHMA ROOPNARINE 30 F 124 / 267 F3039 9:25
800 47:07 2067 SALENE GRIFFITH 40 F 92 / 157 F4049 9:26 SAVAGE CREW
801 47:08 960 JADON RIBEIRO-AGARD 10 M 103 / 165 M-U20 9:26 SAVAGE CREW
802 47:09 829 DYLAN PITCHER 17 M 104 / 165 M-U20 9:26 TEAM MAPLE LEAF
803 47:10 1227 LINDY-ANN CHEVALIER 14 F 80 / 165 F-U20 9:26 PRICEWATERHOUSECOOPERS
804 47:11 1557 SHANNON DAVIS 28 F 99 / 190 F2029 9:27 X CANCEL CANCER
805 47:12 337 MARISSA GITTENS 35 F 125 / 267 F3039 9:27 TEAM COCA-COLA
806 47:12 293 KELE TAYLOR 34 F 126 / 267 F3039 9:27 TEAM COCA-COLA
807 47:13 328 LYNDELL BYER 22 M 66 / 86 M2029 9:27 X #TEAMGUSTINE
808 47:13 628 BEVERLY ROBERTS-JOHNSON 54 F 33 / 77 F5059 9:27
809 47:14 2309 LYDIA MAUGHN-BENN 52 F 34 / 77 F5059 9:27 X IN D SQUARE
810 47:16 1873 MAKEDA CALLISTE 36 F 127 / 267 F3039 9:28
811 47:19 1057 JON-PAUL ARJOON 16 M 105 / 165 M-U20 9:28 TEAM MAPLE LEAF
812 47:20 622 AVYANN FERGUSON 40 F 93 / 157 F4049 9:28
813 47:21 886 GARY AWAI 50 M 34 / 48 M5059 9:29
814 47:30 303 KEVIN BROWNE 40 M 66 / 90 M4049 9:30 KEE CHANONA FITNESS
815 47:30 1792 CARLENE GEORGE 42 F 94 / 157 F4049 9:30 A AND F FITNESS
816 47:32 1815 DENNESHA DAVID 27 F 100 / 190 F2029 9:31
817 47:36 2265 ALICIA CODRINGTON 47 F 95 / 157 F4049 9:32
818 47:37 1372 NIKISHA CROPPER 34 F 128 / 267 F3039 9:32
819 47:39 265 JENNIFER PAPONETTE 50 F 35 / 77 F5059 9:32
820 47:39 1091 KADELA SORIAS-PETERS 32 F 129 / 267 F3039 9:32
821 47:40 922 HAYDEN JR JAGGASSAR 35 M 90 / 124 M3039 9:32
822 47:41 366 NEIL GRANT 48 M 67 / 90 M4049 9:33 X #TEAMGUSTINE
823 47:42 1820 DONNA BASARATH 62 F 8 / 25 F60+ 9:33
824 47:43 1405 PATRICIA JAMES 53 F 36 / 77 F5059 9:33
825 47:43 1416 PETAL RIBEIRO 44 F 96 / 157 F4049 9:33 SAVAGE CREW
826 47:44 1615 SOFIA JODHAN 12 F 81 / 165 F-U20 9:33 TEAM MAPLE LEAF
827 47:44 148 ANDREA NANDLAL 26 F 101 / 190 F2029 9:33 TEAM COCA-COLA
828 47:45 1505 ROXANNE CELESTINE 41 M 68 / 90 M4049 9:33
829 47:49 734 CLINT WILLIAMS 52 M 35 / 48 M5059 9:34 CORBIN COMMUNICATIONS
830 47:50 1309 MICHELLE CHIN CHUCK 48 F 97 / 157 F4049 9:34 X CANCEL CANCER
831 47:50 1244 LUKE MANSOOR 12 M 106 / 165 M-U20 9:34 TEAM MAPLE LEAF
832 47:51 517 ALEX MILNE 13 M 107 / 165 M-U20 9:35 TEAM MAPLE LEAF
833 47:53 2055 CLARISSA PANTIN 30 F 130 / 267 F3039 9:35 X
834 47:55 797 DENISE MORALDO 56 F 37 / 77 F5059 9:35
835 47:59 1804 CRISHA MC PHERSON 35 F 131 / 267 F3039 9:36
836 48:00 2015 INDIRA BISSOON 45 F 98 / 157 F4049 9:36 FUGRO
837 48:08 2310 SHANYESE LALL 22 F 102 / 190 F2029 9:38
838 48:09 2200 RONALD DE VERTEUIL 55 M 36 / 48 M5059 9:38
839 48:10 625 BERNICE AT. LOUIS 44 F 99 / 157 F4049 9:38
840 48:16 642 BRYANT CARRINGTON 23 M 67 / 86 M2029 9:40 X CARD OPERATIONS TEAM
841 48:19 1747 YUMIASHA ANDREWS 9 F 82 / 165 F-U20 9:40
842 48:20 983 JANELLE OME 39 F 132 / 267 F3039 9:40 X
843 48:21 1204 LATOYA SIMPSON 32 F 133 / 267 F3039 9:41
844 48:25 266 JERMAINE CRUICKSHANK 54 F 38 / 77 F5059 9:41 KEE CHANONA FITNESS
845 48:26 959 JADEN BALKARANSINGH 11 M 108 / 165 M-U20 9:42 AIJANFITNESS
846 48:27 657 CAREEN MORGAN-GREAVES 43 F 100 / 157 F4049 9:42 RUN LIKE THE WINDED
847 48:35 1245 LUKLAN FONG 44 M 69 / 90 M4049 9:43 CARD OPERATIONS TEAM
848 48:35 925 HEATHER BOWMAN 39 F 134 / 267 F3039 9:43 X CARD OPERATIONS TEAM
849 48:37 1326 NADINE BHAGAN 31 F 135 / 267 F3039 9:44
850 48:37 1691 TONI CAMPBELL-WARREN 11 F 83 / 165 F-U20 9:44
851 48:37 1698 TRICIA BISSOON-POLLARD 37 F 136 / 267 F3039 9:44
852 48:37 707 CHEYENNE POLLARD 7 F 84 / 165 F-U20 9:44
853 48:37 1054 JONATHAN LALOO 28 M 68 / 86 M2029 9:44
854 48:41 751 CYNTHIA POLLARD 68 F 9 / 25 F60+ 9:45
855 48:42 2211 STACY ROSS 32 F 137 / 267 F3039 9:45
856 48:46 731 CLEON HENRY 37 M 91 / 124 M3039 9:46 TEAM NAGICO
857 48:47 1107 KAREN GRIFFITH WOO LING 40 F 101 / 157 F4049 9:46
858 48:47 1564 SHARON MELVILLE 46 F 102 / 157 F4049 9:46 TEAM NAGICO
859 48:48 1841 JOANNE JONES-LEWIS 57 F 39 / 77 F5059 9:46
860 48:49 1818 DIANNE JONES SERRANEAU 56 F 40 / 77 F5059 9:46
861 48:49 1806 DANELLE DHANIRAM 37 F 138 / 267 F3039 9:46 MASTER OSH
862 48:53 974 JAMIE MANSON 28 F 103 / 190 F2029 9:47 TEAM NAGICO
863 48:54 950 IYANNA FREDERICK 24 F 104 / 190 F2029 9:47 TEAM NAGICO
864 48:54 702 CHERISE MURRELL 30 F 139 / 267 F3039 9:47 X PRIVATE BANKING & FIN
865 48:54 1563 SHARLENE DOLABAILLE 30 F 140 / 267 F3039 9:47 TEAM NAGICO
866 48:55 2236 KIMBERLY THOMAS 22 F 105 / 190 F2029 9:47 CORBIN COMMUNICATIONS
867 48:56 572 ANIK PHARAND 36 F 141 / 267 F3039 9:48 TEAM MAPLE LEAF
868 48:59 1822 ELIZABETH COBHAN 49 F 103 / 157 F4049 9:48 A AND F FITNESS
869 48:59 909 GRACE CULLEN 28 F 106 / 190 F2029 9:48 TEAM MAPLE LEAF
870 49:00 2076 SALENA SARGEANT 15 F 85 / 165 F-U20 9:48 FR.PATHFINDER CLUB
871 49:00 2072 SEMIRA SARGEANT 11 F 86 / 165 F-U20 9:48 FR.PATHFINDER CLUB
872 49:01 83 POORAN RAMPERSAD 62 F 10 / 25 F60+ 9:48
873 49:04 2233 CIELE WILLIAMS 23 F 107 / 190 F2029 9:49 CORBIN COMMUNICATIONS
874 49:05 2088 ANELIA CLARK 14 F 87 / 165 F-U20 9:49 FR.PATHFINDER CLUB
875 49:08 401 RENEE VINCENT 25 F 108 / 190 F2029 9:50
876 49:10 1454 RENA RAMOUTARSINGH 25 F 109 / 190 F2029 9:50 TEAM NAGICO
877 49:15 1579 SHERINE GOMEZ 31 F 142 / 267 F3039 9:51 TEAM NAGICO
878 49:21 902 GILLIAN COZIER 45 F 104 / 157 F4049 9:53 FITNESS 360
879 49:22 2098 GERON EUDOXIE 10 M 109 / 165 M-U20 9:53 TEAM EUDOXIE
880 49:23 413 ROMMEL MARAJ 47 M 70 / 90 M4049 9:53
881 49:24 419 RUDY SOOKHAI 47 M 71 / 90 M4049 9:53
882 49:25 495 ADRIAN ROCHARD 17 M 110 / 165 M-U20 9:53 ROCHARD5
883 49:28 314 KRYSTEINA KING 25 F 110 / 190 F2029 9:54
884 49:28 2179 AKSHAY COLAI 10 M 111 / 165 M-U20 9:54
885 49:29 1938 TRICIA ASHTON 38 F 143 / 267 F3039 9:54 PRIVATE BANKING & FIN
886 49:30 2178 SUELAN CHIN-COLAI 38 F 144 / 267 F3039 9:54
887 49:30 1925 SHINNIAH NOREIGA 17 F 88 / 165 F-U20 9:54 PRIVATE BANKING & FIN
888 49:30 273 JOEL KHAN 42 M 72 / 90 M4049 9:54 TEAM ARIMA
889 49:32 1813 DENISE PEREZ 32 F 145 / 267 F3039 9:55 A AND F FITNESS
890 49:32 1803 CORYSE BECKLES 34 F 146 / 267 F3039 9:55 X TEAM PRINCES TOWN
891 49:39 321 LAVERNE PARKS 34 F 147 / 267 F3039 9:56 TEAM COCA-COLA
892 49:40 1376 NISHA MARAJ